Time;durP1;ratioP1;P1;durP2;ratioP2;P2;SDS_P1;SDS_P2;PMS_P1;PMS_P2;Temp;Humidity;BMP_temperature;BMP_pressure;BME280_temperature;BME280_humidity;BME280_pressure;Samples;Min_cycle;Max_cycle;Signal;HPM_P1;HPM_P2
2023/03/31 00:00:29;;;;;;;6.00;3.37;;;9.70;91.40;;;10.33;73.49;97351.09;5062376;28;20458;-78
2023/03/31 00:02:57;;;;;;;5.10;3.40;;;9.80;91.00;;;10.24;73.58;97337.09;5039080;28;20516;-77
2023/03/31 00:05:25;;;;;;;8.60;2.40;;;9.90;91.00;;;10.34;72.77;97345.47;5039368;28;20470;-77
2023/03/31 00:08:00;;;;;;;6.30;2.83;;;10.00;89.50;;;10.38;72.52;97340.41;5043719;28;20473;-76
2023/03/31 00:10:27;;;;;;;6.00;3.10;;;10.10;88.60;;;10.42;72.34;97327.31;5045233;28;20488;-79
2023/03/31 00:12:55;;;;;;;11.33;3.20;;;10.10;88.20;;;10.19;72.98;97305.38;5042178;28;20944;-78
2023/03/31 00:15:23;;;;;;;4.73;2.70;;;10.10;88.20;;;10.38;72.51;97318.00;5033992;28;20918;-76
2023/03/31 00:17:50;;;;;;;4.97;2.73;;;10.10;88.70;;;10.26;72.60;97321.50;5043655;28;20460;-77
2023/03/31 00:20:18;;;;;;;4.53;2.47;;;10.10;88.40;;;10.19;73.27;97321.59;5045585;28;20448;-79
2023/03/31 00:22:46;;;;;;;5.00;2.90;;;10.00;88.80;;;10.28;72.98;97310.47;5044690;28;20464;-78
2023/03/31 00:25:13;;;;;;;6.17;2.97;;;10.00;89.00;;;9.78;73.79;97286.25;5054591;28;20524;-77
2023/03/31 00:27:43;;;;;;;3.20;2.63;;;9.90;90.00;;;10.10;73.40;97322.97;5040786;28;20472;-77
2023/03/31 00:30:12;;;;;;;3.70;2.73;;;9.90;90.30;;;10.07;73.66;97326.13;5045533;28;20456;-80
2023/03/31 00:32:41;;;;;;;3.43;1.90;;;9.80;90.20;;;9.88;74.36;97336.16;5062733;28;20464;-80
2023/03/31 00:35:08;;;;;;;4.90;2.20;;;9.70;90.30;;;9.92;74.91;97316.56;5043653;28;20503;-78
2023/03/31 00:37:36;;;;;;;6.33;2.40;;;9.70;90.80;;;9.91;74.52;97317.59;5042780;28;20470;-79
2023/03/31 00:40:08;;;;;;;3.30;2.23;;;9.60;91.10;;;9.94;74.77;97304.72;5046110;28;20844;-76
2023/03/31 00:42:40;;;;;;;6.93;2.20;;;9.60;91.40;;;9.82;75.22;97310.91;5039522;28;20447;-77
2023/03/31 00:45:29;;;;;;;6.00;2.00;;;9.40;91.60;;;9.64;75.28;97299.09;5034843;28;21153;-75
2023/03/31 00:48:09;;;;;;;3.03;2.33;;;9.30;92.30;;;9.77;75.42;97308.03;5043524;28;20499;-78
2023/03/31 00:50:43;;;;;;;5.30;2.97;;;9.30;92.50;;;9.72;75.43;97308.75;5040119;28;20467;-76
2023/03/31 00:53:14;;;;;;;3.50;2.20;;;9.30;92.60;;;9.68;75.35;97302.13;5045231;28;20540;-78
2023/03/31 00:55:45;;;;;;;3.87;2.13;;;9.20;92.40;;;9.33;75.13;97238.91;5036884;28;20897;-77
2023/03/31 00:58:14;;;;;;;4.10;1.97;;;9.20;92.90;;;9.61;75.70;97283.34;5039503;28;20851;-77
2023/03/31 01:00:41;;;;;;;6.43;2.23;;;9.10;93.20;;;9.76;75.41;97296.44;5041052;28;20455;-79
2023/03/31 01:03:10;;;;;;;6.13;2.13;;;9.20;93.10;;;9.80;75.63;97280.63;5049406;28;20924;-75
2023/03/31 01:05:43;;;;;;;3.03;1.93;;;9.20;93.20;;;9.80;75.27;97275.22;5033517;28;20458;-77
2023/03/31 01:08:12;;;;;;;8.17;2.80;;;9.20;93.30;;;9.89;75.45;97273.03;5038743;28;20527;-77
2023/03/31 01:10:43;;;;;;;7.70;2.70;;;9.30;93.30;;;9.85;75.19;97256.47;5051770;28;20485;-75
2023/03/31 01:13:12;;;;;;;5.13;2.50;;;9.30;93.00;;;9.86;75.54;97258.13;5043332;28;20482;-79
2023/03/31 01:15:41;;;;;;;4.47;2.13;;;9.40;92.90;;;9.93;75.20;97263.41;5061373;28;20466;-75
2023/03/31 01:18:10;;;;;;;5.43;2.27;;;9.40;92.50;;;9.88;75.08;97242.53;5071553;28;20484;-77
2023/03/31 01:20:54;;;;;;;3.10;2.37;;;9.40;92.40;;;9.82;75.65;97246.16;5069627;28;20660;-77
2023/03/31 01:23:57;;;;;;;7.60;2.77;;;9.30;92.70;;;9.95;75.27;97244.31;5062169;28;20519;-77
2023/03/31 01:27:05;;;;;;;5.10;2.50;;;9.40;93.00;;;9.89;75.81;97227.97;5041801;28;20494;-79
2023/03/31 01:30:16;;;;;;;6.60;2.47;;;9.50;92.50;;;9.86;75.67;97225.75;5050848;28;20448;-77
2023/03/31 01:33:40;;;;;;;3.83;2.23;;;9.40;92.70;;;9.82;76.22;97216.47;5050282;28;20454;-79
2023/03/31 01:36:51;;;;;;;3.90;2.47;;;9.40;92.80;;;9.66;76.83;97214.44;5026519;28;20563;-81
2023/03/31 01:40:08;;;;;;;6.50;2.63;;;9.30;93.20;;;9.57;76.50;97222.03;5038060;28;20457;-77
2023/03/31 01:42:39;;;;;;;5.50;2.80;;;9.20;93.60;;;9.46;77.14;97204.72;5051777;28;21270;-77
2023/03/31 01:45:19;;;;;;;4.10;2.60;;;9.20;93.80;;;9.56;76.76;97207.69;5046397;28;20959;-77
2023/03/31 01:47:53;;;;;;;8.83;3.13;;;9.20;93.40;;;9.45;77.10;97212.00;5059334;28;20506;-78
2023/03/31 01:50:28;;;;;;;4.03;2.33;;;9.20;93.00;;;9.47;76.14;97207.19;5062024;28;20457;-76
2023/03/31 01:53:03;;;;;;;5.70;3.33;;;9.30;92.60;;;9.37;76.88;97206.91;5047692;28;20442;-77
2023/03/31 01:55:36;;;;;;;4.63;3.00;;;9.30;92.50;;;9.51;76.26;97180.59;5045325;28;20993;-77
2023/03/31 01:58:11;;;;;;;4.67;2.80;;;9.30;92.30;;;9.16;76.53;97130.06;5047590;28;20547;-76
2023/03/31 02:00:43;;;;;;;5.43;3.73;;;9.30;92.20;;;9.36;76.78;97178.31;5060094;28;20467;-74
2023/03/31 02:03:20;;;;;;;5.00;2.63;;;9.40;92.00;;;9.46;76.47;97178.59;5046288;28;20484;-78
2023/03/31 02:05:52;;;;;;;7.23;3.30;;;9.40;91.90;;;9.49;76.62;97171.94;5044995;28;20459;-77
2023/03/31 02:08:24;;;;;;;4.07;2.60;;;9.30;92.20;;;9.51;76.36;97169.81;5042653;28;20527;-77
2023/03/31 02:10:54;;;;;;;5.80;3.20;;;9.30;92.30;;;9.45;76.18;97144.59;5036057;28;20465;-78
2023/03/31 02:13:25;;;;;;;9.23;3.50;;;9.40;92.20;;;9.43;76.00;97157.47;5054192;28;20479;-78
2023/03/31 02:15:57;;;;;;;5.50;3.10;;;9.40;91.60;;;9.46;75.53;97146.25;5047507;28;20466;-75
2023/03/31 02:18:29;;;;;;;5.43;2.80;;;9.40;91.40;;;9.72;75.25;97144.19;5042004;28;20551;-79
2023/03/31 02:20:58;;;;;;;8.47;3.37;;;9.50;91.10;;;9.75;74.52;97151.00;5050951;28;20452;-79
2023/03/31 02:23:31;;;;;;;4.73;2.90;;;9.50;90.70;;;9.82;74.77;97156.28;5046668;28;20472;-76
2023/03/31 02:26:05;;;;;;;5.57;2.23;;;9.60;90.60;;;9.84;73.93;97151.47;5060552;28;20484;-77
2023/03/31 02:28:33;;;;;;;5.73;2.97;;;9.60;90.60;;;9.77;74.80;97154.28;5052430;28;20906;-77
2023/03/31 02:31:14;;;;;;;6.33;3.20;;;9.60;90.40;;;9.89;73.66;97143.53;5042739;28;20457;-77
2023/03/31 02:33:41;;;;;;;5.77;3.33;;;9.70;90.10;;;9.88;74.37;97148.09;5044858;28;20456;-77
2023/03/31 02:36:09;;;;;;;7.00;3.20;;;9.70;90.10;;;9.95;73.76;97149.88;5045909;28;21017;-79
2023/03/31 02:38:43;;;;;;;6.60;2.73;;;9.70;90.00;;;9.81;73.43;97136.59;5052835;28;20448;-78
2023/03/31 02:41:11;;;;;;;6.60;3.13;;;9.70;89.80;;;9.80;73.25;97129.56;5042480;28;20456;-78
2023/03/31 02:43:39;;;;;;;4.97;2.60;;;9.70;89.30;;;9.85;73.12;97145.84;5047970;28;20477;-76
2023/03/31 02:46:06;;;;;;;7.47;3.00;;;9.70;88.80;;;9.95;73.22;97144.47;5047192;28;20541;-78
2023/03/31 02:48:37;;;;;;;4.90;2.30;;;9.80;88.70;;;9.91;73.14;97126.03;5063812;28;21002;-78
2023/03/31 02:51:48;;;;;;;4.73;2.70;;;9.70;88.20;;;9.88;72.34;97123.81;5045905;28;20457;-75
2023/03/31 02:55:02;;;;;;;5.70;2.80;;;9.80;88.10;;;9.94;72.52;97122.06;5045444;28;20460;-78
2023/03/31 02:58:22;;;;;;;5.73;2.40;;;9.80;87.70;;;9.87;72.27;97122.16;5042734;28;20532;-78
2023/03/31 03:01:09;;;;;;;8.50;2.80;;;9.80;87.70;;;9.66;73.08;97117.34;5036783;28;20810;-80
2023/03/31 03:03:48;;;;;;;3.53;1.83;;;9.70;87.60;;;9.52;73.32;97095.97;5037493;28;20466;-78
2023/03/31 03:06:37;;;;;;;3.90;2.93;;;9.60;88.20;;;9.72;72.99;97097.50;5040687;28;20509;-78
2023/03/31 03:09:21;;;;;;;5.90;2.80;;;9.50;88.00;;;9.63;73.35;97087.09;5043038;28;20570;-77
2023/03/31 03:11:58;;;;;;;5.33;3.00;;;9.50;88.00;;;9.63;72.96;97089.78;5045134;28;21083;-77
2023/03/31 03:14:33;;;;;;;3.67;2.90;;;9.50;88.60;;;9.69;71.90;97068.31;5047057;28;20457;-75
2023/03/31 03:17:06;;;;;;;6.07;2.77;;;9.50;88.40;;;9.70;73.17;97076.16;5045172;28;20489;-76
2023/03/31 03:19:33;;;;;;;6.33;3.40;;;9.50;88.10;;;9.61;72.13;97067.59;5043612;28;20454;-75
2023/03/31 03:22:01;;;;;;;6.83;3.50;;;9.50;87.70;;;9.76;72.16;97060.91;5048316;28;20522;-79
2023/03/31 03:24:28;;;;;;;3.30;2.83;;;9.50;87.30;;;9.66;72.20;97068.78;5048875;28;20498;-75
2023/03/31 03:26:56;;;;;;;4.50;2.60;;;9.50;87.20;;;9.70;72.41;97049.19;5038021;28;20484;-77
2023/03/31 03:29:23;;;;;;;4.93;2.87;;;9.60;87.30;;;9.67;71.90;97065.03;5048731;28;20521;-76
2023/03/31 03:31:52;;;;;;;5.80;3.20;;;9.60;86.90;;;9.64;72.55;97047.44;5048252;28;20483;-76
2023/03/31 03:34:19;;;;;;;9.07;2.73;;;9.50;86.80;;;9.57;72.11;97039.44;5058717;28;20454;-77
2023/03/31 03:36:47;;;;;;;5.73;3.83;;;9.50;87.00;;;9.69;72.09;97046.72;5050514;28;20473;-78
2023/03/31 03:39:14;;;;;;;5.60;2.77;;;9.60;86.70;;;9.73;71.93;97037.13;5057575;28;20487;-75
2023/03/31 03:41:42;;;;;;;6.60;2.70;;;9.60;86.60;;;9.74;71.68;97033.34;5079202;28;20453;-75
2023/03/31 03:44:09;;;;;;;4.57;2.60;;;9.60;86.50;;;9.77;71.62;97027.50;5057248;28;20453;-77
2023/03/31 03:46:36;;;;;;;3.97;2.43;;;9.60;86.30;;;9.70;71.79;97014.13;5057870;28;20450;-79
2023/03/31 03:49:05;;;;;;;4.63;2.50;;;9.60;86.80;;;9.74;70.76;97026.09;5047946;28;20854;-80
2023/03/31 03:51:32;;;;;;;4.20;2.40;;;9.70;86.10;;;9.84;71.43;97028.22;5046385;28;20495;-79
2023/03/31 03:54:00;;;;;;;4.10;2.53;;;9.70;86.40;;;9.68;72.04;97012.72;5048520;28;20502;-79
2023/03/31 03:56:27;;;;;;;3.47;2.63;;;9.70;86.80;;;9.69;72.88;97003.59;5045239;28;20501;-77
2023/03/31 03:58:54;;;;;;;6.20;2.60;;;9.60;87.60;;;9.70;72.99;97016.00;5042463;28;20541;-79
2023/03/31 04:01:22;;;;;;;6.67;2.33;;;9.60;88.40;;;9.67;74.27;97011.91;5047796;28;21348;-78
2023/03/31 04:03:49;;;;;;;5.37;2.83;;;9.50;89.80;;;9.61;75.47;97013.66;5057780;28;20456;-80
2023/03/31 04:06:18;;;;;;;3.97;2.33;;;9.50;91.00;;;9.54;75.78;97001.34;5061977;28;20532;-73
2023/03/31 04:08:45;;;;;;;6.63;2.83;;;9.50;91.70;;;9.49;75.94;96994.78;5070783;28;20439;-77
2023/03/31 04:11:16;;;;;;;4.93;3.47;;;9.40;91.60;;;9.56;76.45;97016.22;5069763;28;20514;-76
2023/03/31 04:13:44;;;;;;;6.70;2.97;;;9.50;91.60;;;9.56;75.62;97005.44;5068215;28;20452;-77
2023/03/31 04:16:11;;;;;;;7.10;3.40;;;9.50;91.20;;;9.55;76.30;96998.41;5071808;28;20474;-79
2023/03/31 04:18:41;;;;;;;5.67;3.10;;;9.50;91.60;;;9.40;76.51;96953.06;5055559;28;20477;-80
2023/03/31 04:21:11;;;;;;;6.70;3.00;;;9.50;92.10;;;9.17;76.57;96940.34;5047359;28;20496;-78
2023/03/31 04:23:45;;;;;;;5.50;3.10;;;9.50;91.90;;;9.53;76.62;96989.75;5046388;28;20440;-79
2023/03/31 04:26:13;;;;;;;5.33;2.70;;;9.50;92.10;;;9.54;76.43;96977.06;5043420;28;20454;-80
2023/03/31 04:28:45;;;;;;;6.07;3.60;;;9.50;92.00;;;9.57;77.01;96973.94;5068717;28;20513;-79
2023/03/31 04:31:15;;;;;;;5.47;4.27;;;9.50;92.20;;;9.70;76.95;96975.56;5050309;28;20467;-79
2023/03/31 04:33:44;;;;;;;8.03;4.70;;;9.50;92.50;;;9.74;76.90;96968.63;5043429;28;20514;-78
2023/03/31 04:36:16;;;;;;;6.27;4.53;;;9.60;93.00;;;9.61;77.69;96956.22;5047656;28;21171;-81
2023/03/31 04:38:46;;;;;;;9.93;4.77;;;9.50;93.00;;;9.53;77.72;96951.16;5047587;28;20477;-81
2023/03/31 04:41:15;;;;;;;12.43;5.17;;;9.50;92.60;;;9.56;77.43;96935.34;5045936;28;20505;-80
2023/03/31 04:43:43;;;;;;;7.03;3.77;;;9.50;92.80;;;9.57;77.36;96931.59;5047056;28;20460;-80
2023/03/31 04:46:10;;;;;;;8.83;3.90;;;9.50;92.80;;;9.66;77.07;96933.94;5039373;28;20461;-78
2023/03/31 04:48:38;;;;;;;4.83;3.70;;;9.40;93.60;;;9.63;76.99;96925.25;5042497;28;20452;-79
2023/03/31 04:51:06;;;;;;;6.30;3.30;;;9.40;92.90;;;9.77;77.54;96919.59;5040265;28;20507;-74
2023/03/31 04:53:33;;;;;;;7.53;3.47;;;9.40;92.80;;;9.69;76.77;96914.56;5044424;28;21015;-79
2023/03/31 04:56:02;;;;;;;4.43;3.67;;;9.50;93.00;;;9.75;76.31;96897.44;5043171;28;20913;-80
2023/03/31 04:58:31;;;;;;;4.80;3.03;;;9.50;93.10;;;9.66;76.92;96890.78;5046482;28;20455;-79
2023/03/31 05:00:58;;;;;;;6.40;3.90;;;9.50;92.70;;;9.68;77.08;96891.38;5060361;28;20782;-78
2023/03/31 05:03:26;;;;;;;6.70;3.97;;;9.50;92.80;;;9.83;76.71;96882.75;5059485;28;20509;-72
2023/03/31 05:05:53;;;;;;;5.47;3.50;;;9.50;93.10;;;9.81;77.21;96877.63;5029692;28;20490;-79
2023/03/31 05:08:21;;;;;;;7.73;3.87;;;9.50;93.40;;;9.90;76.99;96888.84;5047396;28;20906;-81
2023/03/31 05:10:48;;;;;;;9.07;4.07;;;9.50;94.00;;;9.82;77.08;96868.47;5047421;28;20542;-71
2023/03/31 05:13:17;;;;;;;6.53;3.30;;;9.60;93.50;;;9.80;77.74;96875.97;5052606;28;20457;-69
2023/03/31 05:15:44;;;;;;;7.13;3.17;;;9.50;93.50;;;9.81;77.14;96877.63;5052395;28;20449;-68
2023/03/31 05:18:12;;;;;;;25.27;4.17;;;9.60;93.00;;;9.77;76.80;96876.44;5045067;28;20497;-68
2023/03/31 05:20:39;;;;;;;5.83;3.50;;;9.60;92.50;;;9.96;75.85;96852.81;5047987;28;20550;-70
2023/03/31 05:23:06;;;;;;;5.60;3.50;;;9.70;92.90;;;9.98;75.91;96866.06;5049312;28;22023;-75
2023/03/31 05:25:34;;;;;;;6.23;3.47;;;9.70;92.60;;;10.17;76.14;96854.03;5067535;28;20813;-73
2023/03/31 05:28:02;;;;;;;8.30;3.63;;;9.70;92.50;;;9.79;76.07;96798.81;5041979;28;20460;-73
2023/03/31 05:30:31;;;;;;;7.00;3.90;;;9.80;92.10;;;10.03;75.80;96829.22;5043699;28;20452;-68
2023/03/31 05:32:59;;;;;;;6.50;3.27;;;9.80;91.90;;;10.06;75.81;96827.91;5044002;28;20484;-70
2023/03/31 05:35:26;;;;;;;5.40;3.07;;;9.80;92.00;;;10.05;76.01;96819.00;5050864;28;20452;-72
2023/03/31 05:37:53;;;;;;;5.73;3.70;;;9.80;92.30;;;10.16;76.42;96820.00;5039268;28;21182;-70
2023/03/31 05:40:20;;;;;;;9.23;3.53;;;9.80;92.60;;;9.90;77.33;96807.91;5046158;28;20529;-72
2023/03/31 05:42:47;;;;;;;7.50;3.90;;;9.70;92.90;;;9.73;77.00;96792.50;5046988;28;20442;-72
2023/03/31 05:45:15;;;;;;;6.40;3.47;;;9.70;92.40;;;10.09;75.52;96797.75;5036790;28;20531;-71
2023/03/31 05:47:44;;;;;;;6.97;3.37;;;9.80;92.10;;;9.94;76.04;96794.78;5050686;28;21397;-72
2023/03/31 05:50:11;;;;;;;4.60;3.17;;;9.80;91.70;;;9.52;75.63;96718.47;5043949;28;21029;-74
2023/03/31 05:52:39;;;;;;;5.63;3.27;;;9.80;91.90;;;10.04;75.84;96789.53;5041388;28;20471;-71
2023/03/31 05:55:08;;;;;;;6.53;3.27;;;9.80;91.60;;;10.13;74.90;96793.50;5050888;28;20459;-71
2023/03/31 05:57:35;;;;;;;3.97;3.07;;;9.80;91.40;;;10.02;75.68;96791.66;5040806;28;21065;-71
2023/03/31 06:00:06;;;;;;;4.57;2.80;;;9.80;91.30;;;9.91;74.84;96766.38;5044353;28;20449;-73
2023/03/31 06:02:33;;;;;;;7.77;3.53;;;9.90;91.10;;;10.04;74.42;96789.53;5057967;28;20450;-71
2023/03/31 06:05:02;;;;;;;5.00;2.93;;;9.90;90.80;;;10.10;74.66;96785.06;5043339;28;20959;-72
2023/03/31 06:07:30;;;;;;;9.20;3.40;;;9.90;90.70;;;9.97;75.19;96778.91;5043381;28;20460;-71
2023/03/31 06:09:57;;;;;;;4.43;3.07;;;9.80;90.80;;;10.13;74.77;96776.47;5042487;28;20554;-72
2023/03/31 06:12:24;;;;;;;7.43;3.17;;;9.90;90.80;;;10.06;74.40;96777.44;5043261;28;20449;-71
2023/03/31 06:14:52;;;;;;;6.73;3.20;;;9.90;90.40;;;10.19;73.78;96770.13;5047951;28;20461;-70
2023/03/31 06:17:19;;;;;;;8.27;3.40;;;9.90;90.50;;;10.26;73.88;96767.25;5056678;28;20463;-70
2023/03/31 06:19:46;;;;;;;6.10;3.17;;;10.00;89.40;;;10.26;73.78;96761.88;5045384;28;20453;-72
2023/03/31 06:22:15;;;;;;;8.37;3.47;;;10.00;88.70;;;10.24;73.14;96766.69;5042116;28;20478;-70
2023/03/31 06:24:42;;;;;;;4.27;2.90;;;10.10;87.90;;;10.16;72.85;96773.28;5055055;28;20541;-71
2023/03/31 06:27:09;;;;;;;6.70;3.47;;;10.10;87.60;;;10.07;73.55;96773.69;5055355;28;20542;-69
2023/03/31 06:29:37;;;;;;;6.97;2.83;;;10.00;88.20;;;10.03;73.81;96775.25;5038292;28;20497;-70
2023/03/31 06:32:04;;;;;;;3.77;3.17;;;10.00;88.30;;;10.04;74.01;96767.94;5052275;28;20452;-72
2023/03/31 06:34:31;;;;;;;4.43;3.37;;;10.00;88.60;;;10.08;73.76;96777.19;5038532;28;20538;-71
2023/03/31 06:36:59;;;;;;;4.90;2.90;;;10.00;88.20;;;10.11;74.37;96779.44;5051248;28;20483;-71
2023/03/31 06:39:27;;;;;;;5.50;3.60;;;10.00;89.40;;;10.04;74.72;96779.56;5042369;28;20455;-70
2023/03/31 06:41:55;;;;;;;7.37;3.67;;;10.00;90.10;;;9.98;74.82;96790.53;5047757;28;20768;-66
2023/03/31 06:44:23;;;;;;;4.20;2.93;;;9.90;90.50;;;9.89;75.42;96782.81;5036390;28;20554;-72
2023/03/31 06:46:52;;;;;;;5.77;3.57;;;9.80;90.80;;;9.95;76.53;96785.63;5042541;28;20536;-70
2023/03/31 06:49:19;;;;;;;6.93;3.40;;;9.80;91.70;;;9.86;76.73;96798.66;5047689;28;20483;-71
2023/03/31 06:51:46;;;;;;;5.83;3.63;;;9.80;91.80;;;9.76;77.70;96799.28;5034733;28;20588;-71
2023/03/31 06:54:13;;;;;;;6.67;3.50;;;9.70;92.70;;;9.65;77.84;96787.47;5049182;28;20472;-70
2023/03/31 06:56:42;;;;;;;9.07;3.93;;;9.70;93.10;;;9.63;79.92;96806.59;5047297;28;20939;-70
2023/03/31 06:59:09;;;;;;;5.67;3.80;;;9.60;94.50;;;9.68;79.81;96808.56;5073423;28;20454;-72
2023/03/31 07:01:37;;;;;;;8.10;4.27;;;9.60;94.90;;;9.62;80.16;96810.34;5055058;28;20446;-71
2023/03/31 07:04:05;;;;;;;10.13;5.17;;;9.60;95.10;;;9.59;80.54;96810.00;5057149;28;20473;-71
2023/03/31 07:06:32;;;;;;;4.07;3.67;;;9.50;96.20;;;9.74;81.28;96798.69;5044864;28;20454;-70
2023/03/31 07:09:00;;;;;;;6.00;4.73;;;9.50;97.70;;;9.56;81.27;96794.31;5058952;28;20515;-72
2023/03/31 07:11:27;;;;;;;10.87;5.10;;;9.50;96.30;;;9.48;82.09;96796.31;5051643;28;20452;-71
2023/03/31 07:13:56;;;;;;;7.93;5.20;;;9.50;98.70;;;9.53;82.70;96790.22;5050128;28;20458;-72
2023/03/31 07:16:23;;;;;;;7.50;5.10;;;9.40;99.90;;;9.32;84.39;96788.97;5039115;28;20469;-71
2023/03/31 07:18:53;;;;;;;9.83;6.30;;;9.40;99.90;;;9.40;84.76;96785.91;5045409;28;20488;-70
2023/03/31 07:21:21;;;;;;;6.60;5.60;;;9.30;99.90;;;9.60;84.07;96769.31;5055170;28;20487;-72
2023/03/31 07:23:48;;;;;;;10.73;5.90;;;9.40;99.90;;;9.48;83.99;96755.06;5050544;28;20456;-71
2023/03/31 07:26:15;;;;;;;9.23;5.60;;;9.50;99.90;;;9.64;83.48;96759.69;5051884;28;20459;-71
2023/03/31 07:28:43;;;;;;;11.67;6.33;;;9.50;99.90;;;9.66;84.35;96753.25;5055796;28;20454;-71
2023/03/31 07:31:15;;;;;;;8.50;6.70;;;9.60;99.90;;;9.60;85.23;96753.13;5074566;28;20483;-71
2023/03/31 07:33:42;;;;;;;8.00;6.13;;;9.50;99.90;;;9.72;84.99;96745.00;5059699;28;20492;-70
2023/03/31 07:36:10;;;;;;;11.70;6.70;;;9.60;99.90;;;9.67;85.69;96725.22;5045845;28;20481;-70
2023/03/31 07:38:38;;;;;;;10.70;6.50;;;9.60;99.90;;;9.69;85.66;96741.97;5041285;28;20705;-72
2023/03/31 07:41:06;;;;;;;10.20;5.73;;;9.70;99.90;;;9.69;85.14;96728.47;5052705;28;20464;-71
2023/03/31 07:43:33;;;;;;;7.93;6.27;;;9.70;99.90;;;9.98;84.73;96720.38;5054645;28;20459;-71
2023/03/31 07:46:01;;;;;;;13.67;7.13;;;9.80;99.90;;;10.01;84.21;96723.41;5058458;28;20522;-71
2023/03/31 07:48:29;;;;;;;11.80;6.17;;;9.80;99.90;;;9.90;84.03;96708.91;5058601;28;20472;-72
2023/03/31 07:50:56;;;;;;;8.70;5.80;;;9.80;99.90;;;9.98;84.30;96704.19;5047805;28;20489;-72
2023/03/31 07:53:24;;;;;;;8.63;6.70;;;9.80;99.90;;;9.53;85.22;96644.59;5033660;28;20982;-69
2023/03/31 07:55:51;;;;;;;8.37;6.30;;;9.80;99.90;;;9.80;85.89;96691.72;5040725;28;20568;-71
2023/03/31 07:58:18;;;;;;;8.73;6.60;;;9.80;99.90;;;9.72;85.19;96657.88;5045745;28;20480;-71
2023/03/31 08:00:46;;;;;;;10.73;7.13;;;9.80;99.90;;;9.91;85.47;96694.34;5037887;28;20446;-69
2023/03/31 08:03:13;;;;;;;9.17;6.77;;;9.70;99.90;;;9.80;85.65;96670.97;5037044;28;20491;-70
2023/03/31 08:05:41;;;;;;;8.63;6.10;;;9.70;99.90;;;9.96;85.69;96695.50;5037924;28;20514;-72
2023/03/31 08:08:09;;;;;;;15.00;7.30;;;9.70;99.90;;;9.85;86.86;96698.03;5037238;28;20483;-70
2023/03/31 08:10:36;;;;;;;10.67;6.97;;;9.70;99.90;;;9.91;86.21;96697.03;5054979;28;20459;-71
2023/03/31 08:13:09;;;;;;;12.43;7.33;;;9.80;99.90;;;9.79;87.23;96701.72;5037239;28;20550;-70
2023/03/31 08:15:36;;;;;;;12.27;6.90;;;9.70;99.90;;;9.86;87.16;96705.06;5037464;28;20992;-71
2023/03/31 08:18:04;;;;;;;10.23;7.47;;;9.70;99.90;;;9.76;87.95;96702.16;5042323;28;20467;-70
2023/03/31 08:20:31;;;;;;;10.90;8.17;;;9.60;99.90;;;9.66;88.39;96708.19;5040764;28;20490;-70
2023/03/31 08:23:00;;;;;;;11.60;8.37;;;9.60;99.90;;;9.76;88.63;96702.16;5041053;28;20456;-71
2023/03/31 08:25:27;;;;;;;11.93;8.33;;;9.60;99.90;;;9.71;88.14;96696.69;5043481;28;20449;-70
2023/03/31 08:27:55;;;;;;;12.10;9.30;;;9.60;99.90;;;9.75;88.64;96689.75;5043230;28;20521;-71
2023/03/31 08:30:23;;;;;;;14.40;8.17;;;9.70;99.90;;;9.72;88.47;96690.25;5044407;28;20452;-72
2023/03/31 08:32:51;;;;;;;12.37;8.70;;;9.60;99.90;;;9.75;89.33;96687.88;5042062;28;20485;-70
2023/03/31 08:35:18;;;;;;;12.10;9.30;;;9.60;99.90;;;9.62;89.96;96675.50;5035722;28;20996;-71
2023/03/31 08:37:46;;;;;;;12.70;8.63;;;9.60;99.90;;;9.88;89.67;96675.94;5063455;28;20480;-71
2023/03/31 08:40:21;;;;;;;11.33;8.43;;;9.70;99.90;;;9.83;89.63;96672.34;5046192;28;20466;-70
2023/03/31 08:42:52;;;;;;;12.90;8.17;;;9.80;99.90;;;9.94;88.86;96670.66;5036622;28;20463;-71
2023/03/31 08:45:24;;;;;;;14.03;8.60;;;9.80;99.90;;;10.04;87.95;96630.34;5053052;28;20448;-71
2023/03/31 08:47:57;;;;;;;13.80;8.57;;;10.00;99.90;;;9.86;88.31;96516.22;5050473;28;20459;-70
2023/03/31 08:50:28;;;;;;;15.20;7.50;;;10.00;99.90;;;9.90;88.19;96471.50;5049649;28;20593;-70
2023/03/31 08:53:04;;;;;;;10.13;8.10;;;9.90;99.90;;;10.03;87.42;96443.34;5040561;28;20468;-71
2023/03/31 08:55:43;;;;;;;8.80;7.23;;;10.00;99.90;;;10.33;85.52;96512.28;5032088;28;20445;-71
2023/03/31 08:58:24;;;;;;;8.00;7.20;;;10.20;99.90;;;10.41;86.39;96529.94;5030607;28;20553;-71
2023/03/31 09:01:00;;;;;;;9.73;7.43;;;10.30;99.90;;;10.65;84.82;96518.88;5050613;28;20462;-71
2023/03/31 09:03:40;;;;;;;8.23;7.20;;;10.50;99.90;;;11.21;82.25;96539.47;5042534;28;20530;-69
2023/03/31 09:06:10;;;;;;;11.80;7.63;;;10.80;99.10;;;11.15;82.14;96564.81;5037738;28;20460;-69
2023/03/31 09:08:40;;;;;;;8.57;6.47;;;11.10;96.70;;;11.42;81.88;96563.97;5037388;28;20453;-70
2023/03/31 09:11:15;;;;;;;13.83;7.70;;;11.20;96.60;;;11.32;81.31;96522.28;5034830;28;20445;-69
2023/03/31 09:14:35;;;;;;;8.23;6.63;;;11.50;96.70;;;11.70;79.60;96575.59;5042731;28;22375;-70
2023/03/31 09:17:15;;;;;;;9.33;6.83;;;11.60;94.00;;;11.79;78.48;96584.88;5019956;28;20491;-68
2023/03/31 09:19:49;;;;;;;7.60;6.80;;;11.70;93.40;;;11.65;79.85;96575.53;5038313;28;20766;-71
2023/03/31 09:22:22;;;;;;;12.97;7.07;;;11.60;93.80;;;11.63;79.56;96559.56;5035926;28;20826;-70
2023/03/31 09:24:56;;;;;;;6.90;6.30;;;11.60;93.60;;;11.76;78.64;96544.81;5034828;28;20879;-71
2023/03/31 09:27:30;;;;;;;8.67;6.23;;;11.70;93.20;;;11.81;78.64;96544.00;5048168;28;20453;-70
2023/03/31 09:30:01;;;;;;;7.90;6.30;;;11.70;93.10;;;11.73;78.37;96554.25;5044924;28;20468;-69
2023/03/31 09:32:31;;;;;;;9.30;5.90;;;11.70;92.60;;;11.57;79.71;96542.47;5041094;28;20850;-69
2023/03/31 09:35:02;;;;;;;7.07;6.37;;;11.60;93.10;;;11.80;79.48;96542.38;5041235;28;20457;-70
2023/03/31 09:37:32;;;;;;;15.73;7.40;;;11.60;93.90;;;11.75;78.70;96540.44;5038156;28;20508;-69
2023/03/31 09:40:06;;;;;;;6.40;5.80;;;11.70;93.20;;;11.92;78.91;96555.72;5052451;28;20561;-71
2023/03/31 09:42:36;;;;;;;8.23;6.20;;;11.80;93.10;;;12.38;76.72;96544.38;5034499;28;20461;-70
2023/03/31 09:45:04;;;;;;;7.90;6.43;;;12.10;92.40;;;12.79;75.10;96551.88;5037847;28;20464;-71
2023/03/31 09:47:37;;;;;;;8.00;5.70;;;12.40;91.60;;;12.89;74.37;96539.19;5039274;28;20500;-69
2023/03/31 09:50:06;;;;;;;6.40;5.30;;;12.70;90.50;;;13.58;71.95;96549.06;5038525;28;20474;-69
2023/03/31 09:52:37;;;;;;;6.37;5.77;;;13.10;90.00;;;13.64;71.91;96528.19;5046223;28;20492;-69
2023/03/31 09:55:17;;;;;;;5.67;5.17;;;13.30;89.90;;;13.79;71.68;96539.03;5046653;28;20506;-71
2023/03/31 09:57:46;;;;;;;7.80;5.30;;;13.60;88.10;;;14.01;71.11;96535.19;5058248;28;20452;-70
2023/03/31 10:00:19;;;;;;;5.30;4.60;;;13.90;87.70;;;13.88;70.06;96514.88;5045605;28;20452;-68
2023/03/31 10:02:50;;;;;;;7.10;4.50;;;13.80;86.60;;;13.87;68.79;96516.75;5039724;28;20450;-69
2023/03/31 10:05:37;;;;;;;6.43;4.77;;;13.80;85.70;;;14.41;67.59;96509.03;5041028;28;20482;-70
2023/03/31 10:08:31;;;;;;;4.33;3.80;;;13.90;85.80;;;14.83;65.89;96519.78;5041631;28;20458;-69
2023/03/31 10:11:10;;;;;;;4.00;3.60;;;14.30;85.30;;;15.53;62.72;96507.88;5038200;28;20474;-76
2023/03/31 10:13:47;;;;;;;5.23;3.77;;;14.80;83.50;;;15.15;64.32;96504.91;5046300;28;20451;-74
2023/03/31 10:16:22;;;;;;;4.53;3.40;;;14.90;83.30;;;15.27;62.88;96507.25;5043044;28;20468;-80
2023/03/31 10:18:49;;;;;;;3.43;3.10;;;15.00;81.90;;;14.91;63.23;96508.28;5037631;28;20478;-67
2023/03/31 10:21:23;;;;;;;5.43;3.10;;;14.80;81.20;;;14.69;64.09;96512.19;5044762;28;20466;-68
2023/03/31 10:23:51;;;;;;;4.40;2.33;;;14.60;82.00;;;14.62;63.43;96503.50;5041093;28;20535;-69
2023/03/31 10:26:22;;;;;;;4.10;2.83;;;14.50;81.60;;;14.87;61.45;96477.31;5053239;28;20454;-67
2023/03/31 10:28:54;;;;;;;3.67;2.30;;;14.70;80.40;;;15.40;60.37;96508.53;5039123;28;20462;-68
2023/03/31 10:31:26;;;;;;;5.80;2.73;;;15.00;80.00;;;14.89;60.46;96512.41;5036166;28;20466;-66
2023/03/31 10:33:53;;;;;;;2.33;2.00;;;14.80;78.50;;;14.72;60.37;96505.41;5040661;28;20462;-67
2023/03/31 10:36:26;;;;;;;8.70;2.73;;;14.60;78.60;;;14.64;60.55;96485.03;5038038;28;20519;-66
2023/03/31 10:38:54;;;;;;;4.80;2.70;;;14.60;78.20;;;14.93;60.52;96497.16;5041804;28;20571;-66
2023/03/31 10:41:25;;;;;;;7.30;2.80;;;14.70;78.70;;;15.14;60.00;96497.84;5044981;28;20457;-66
2023/03/31 10:43:56;;;;;;;2.80;2.30;;;14.80;79.00;;;15.62;58.17;96491.75;5046038;28;20473;-66
2023/03/31 10:46:42;;;;;;;3.83;2.20;;;15.20;77.90;;;15.34;57.22;96469.66;5042251;28;20457;-67